Latest Weather Observations for Mount Magnet Airport

IDW60801

Issued at 6:32 pm WST Wednesday 1 April 2015 (issued every 30 minutes, with the page automatically refreshed every 10 minutes)

About weather observations | Map of weather stations | Latest weather observations for WA | Other Formats
Station Details ID: 007600 Name: MOUNT MAGNET AERO Lat: -28.12 Lon: 117.84 Height: 407.0 m
Data from the previous 72 hours. | See also: Recent months at Mount Magnet Airport
Date/Time
WST
Temp
°C
App
Temp
°C
Dew
Point
Rel
Hum
%
Delta-T
°C
Wind Press
QNH
hPa
Press
MSL
hPa
Rain
since 9 am
mm
Dir
 
Spd
km/h
Gust
km/h
Spd
kts
Gust
kts
01/06:30pm 21.8 18.1 13.9 61 4.7 E 26 37 14 20 1020.0 1018.1 0.0
01/06:00pm 22.5 18.5 14.1 59 5.0 ESE 28 39 15 21 1019.6 1017.7 0.0
01/05:30pm 23.1 19.1 14.1 57 5.4 ESE 28 37 15 20 1019.3 1017.3 0.0
01/05:00pm 24.0 20.5 14.4 55 5.8 ESE 26 35 14 19 1018.9 1017.0 0.0
01/04:30pm 24.6 20.9 13.8 51 6.5 ESE 26 37 14 20 1018.8 1016.9 0.0
01/04:00pm 24.6 20.9 13.8 51 6.4 ESE 26 39 14 21 1018.6 1016.7 0.0
01/03:30pm 24.5 20.8 14.0 52 6.3 ESE 26 37 14 20 1018.6 1016.7 0.0
01/03:00pm 24.6 20.8 13.5 50 6.6 ESE 26 39 14 21 1018.8 1016.9 0.0
01/02:30pm 25.1 21.5 14.3 51 6.5 ESE 26 41 14 22 1018.8 1016.9 0.0
01/02:00pm 25.7 22.8 15.1 52 6.5 ESE 24 35 13 19 1019.2 1017.2 0.0
01/01:30pm 25.3 21.8 14.4 50 6.6 ESE 26 33 14 18 1019.5 1017.6 0.0
01/01:00pm 25.4 22.4 14.8 52 6.4 ESE 24 37 13 20 1019.8 1017.9 0.0
01/12:30pm 24.7 21.2 14.5 53 6.2 E 26 39 14 21 1020.1 1018.2 0.0
01/12:00pm 24.6 21.3 15.0 55 5.8 ESE 26 39 14 21 1020.5 1018.6 0.0
01/11:30am 24.3 20.6 15.0 56 5.7 E 28 39 15 21 1020.7 1018.8 0.0
01/11:00am 23.9 20.2 15.1 58 5.3 E 28 39 15 21 1020.9 1019.0 0.0
01/10:30am 23.5 20.8 15.5 60 4.9 E 24 35 13 19 1021.2 1019.3 0.0
01/10:00am 23.0 20.2 15.3 62 4.7 E 24 35 13 19 1021.3 1019.4 0.0
01/09:30am 22.5 19.2 15.1 63 4.5 ESE 26 35 14 19 1021.4 1019.5 0.0
01/09:00am 22.1 20.5 15.9 68 3.8 E 19 28 10 15 1021.4 1019.5 0.6
01/08:30am 21.3 19.5 15.6 70 3.5 ESE 19 24 10 13 1021.2 1019.3 0.6
01/08:00am 20.4 18.9 16.2 77 2.6 ESE 19 26 10 14 1021.0 1019.1 0.6
01/07:30am 19.5 18.7 16.2 81 2.0 ESE 15 20 8 11 1020.6 1018.1 0.6
01/07:00am 18.4 19.0 16.7 90 1.0 E 9 15 5 8 1020.4 1017.9 0.6
01/06:30am 17.2 17.5 16.1 93 0.7 SE 9 11 5 6 1020.2 1017.7 0.6
01/06:00am 17.3 17.6 16.0 92 0.8 SE 9 11 5 6 1019.8 1017.2 0.6
01/05:30am 17.4 17.7 15.9 91 0.9 SE 9 11 5 6 1019.6 1017.0 0.6
01/05:00am 17.6 18.3 16.1 91 0.9 SSE 7 9 4 5 1019.6 1017.0 0.6
01/04:30am 17.8 18.5 16.1 90 1.0 SSE 7 7 4 4 1019.4 1016.8 0.6
01/04:00am 17.9 18.8 16.1 89 1.1 ESE 6 7 3 4 1019.3 1016.7 0.6
01/03:30am 18.1 18.7 15.9 87 1.3 ESE 7 9 4 5 1019.2 1016.6 0.6
01/03:00am 18.4 18.7 16.0 86 1.4 SSE 9 13 5 7 1019.1 1016.5 0.6
01/02:30am 18.6 18.9 16.0 85 1.6 SSE 9 11 5 6 1019.1 1016.5 0.6
01/02:00am 19.0 19.3 16.0 83 1.8 SSE 9 11 5 6 1019.3 1016.7 0.6
01/01:30am 19.4 19.3 16.1 81 2.0 SSE 11 13 6 7 1019.3 1016.7 0.6
01/01:00am 19.7 19.6 16.0 79 2.2 SSE 11 15 6 8 1019.4 1016.8 0.6
01/12:30am 19.9 19.9 16.2 79 2.3 S 11 13 6 7 1019.4 1016.8 0.6
01/12:00am 20.2 20.5 16.0 77 2.6 S 9 11 5 6 1019.4 1016.8 0.6
 
Date/Time
WST
Temp
°C
App
Temp
°C
Dew
Point
Rel
Hum
%
Delta-T
°C
Wind Press
QNH
hPa
Press
MSL
hPa
Rain
since 9 am
mm
Dir
 
Spd
km/h
Gust
km/h
Spd
kts
Gust
kts
31/11:30pm 20.4 20.3 16.0 76 2.7 S 11 13 6 7 1019.4 1016.8 0.6
31/11:00pm 20.7 20.6 16.1 75 2.8 S 11 13 6 7 1019.5 1016.9 0.6
31/10:30pm 21.2 20.7 16.0 72 3.2 S 13 15 7 8 1019.5 1016.9 0.6
31/10:00pm 21.5 21.1 16.2 72 3.2 S 13 17 7 9 1019.6 1017.0 0.6
31/09:30pm 21.4 21.6 16.8 75 2.9 S 11 13 6 7 1019.6 1017.0 0.6
31/09:00pm 21.6 22.3 17.0 75 2.9 S 9 11 5 6 1019.3 1016.7 0.6
31/08:30pm 22.1 22.4 17.0 73 3.2 S 11 13 6 7 1018.9 1016.4 0.6
31/08:00pm 22.5 22.9 17.2 72 3.3 SSE 11 11 6 6 1018.7 1016.2 0.6
31/07:30pm 23.0 23.3 17.0 69 3.8 SSE 11 13 6 7 1018.3 1015.8 0.6
31/07:00pm 23.4 23.4 17.2 68 3.9 S 13 15 7 8 1017.8 1015.2 0.6
31/06:30pm 23.9 23.3 16.7 64 4.5 S 15 19 8 10 1017.3 1014.7 0.6
31/06:00pm 24.6 23.4 16.1 59 5.3 SSW 17 20 9 11 1017.0 1014.4 0.6
31/05:30pm 25.2 24.5 16.3 57 5.5 SSW 15 20 8 11 1016.9 1014.3 0.6
31/05:00pm 25.1 23.8 15.7 56 5.8 SW 17 20 9 11 1016.8 1014.2 0.6
31/04:30pm 25.3 24.4 15.9 56 5.8 SSW 15 20 8 11 1016.4 1013.9 0.6
31/04:00pm 25.1 23.8 15.7 56 5.8 SSW 17 22 9 12 1016.3 1013.8 0.6
31/03:30pm 25.2 25.0 16.6 59 5.4 SSW 13 20 7 11 1016.2 1013.7 0.6
31/03:00pm 25.4 25.4 17.1 60 5.2 SW 13 20 7 11 1016.3 1013.8 0.6
31/02:30pm 24.7 24.7 17.2 63 4.7 SSW 13 17 7 9 1016.6 1014.0 0.6
31/02:00pm 24.2 24.3 17.4 65 4.3 SW 13 19 7 10 1016.7 1014.1 0.6
31/01:30pm 24.3 24.2 17.8 67 4.1 SW 15 20 8 11 1016.8 1014.2 0.6
31/01:00pm 23.6 22.9 17.3 67 4.0 SW 17 22 9 12 1017.0 1014.4 0.6
31/12:30pm 22.9 22.6 17.4 71 3.5 SSW 15 22 8 12 1017.3 1014.7 0.6
31/12:00pm 22.2 21.9 17.3 74 3.1 SSW 15 20 8 11 1017.6 1015.0 0.6
31/11:30am 21.9 21.8 17.9 78 2.5 SSW 15 20 8 11 1017.9 1015.3 0.6
31/11:00am 21.0 21.7 18.9 88 1.3 SSW 13 15 7 8 1018.1 1015.6 0.6
31/10:30am 20.2 19.0 18.5 90 1.1 SSW 22 30 12 16 1018.3 1015.8 0.4
31/10:00am 20.5 21.2 18.8 90 1.1 SW 13 20 7 11 1018.3 1015.8 0.2
31/09:30am 21.3 22.1 18.1 82 2.0 WSW 11 17 6 9 1018.2 1015.7 0.0
31/09:00am 21.2 22.2 18.6 85 1.7 W 11 15 6 8 1018.3 1015.8 39.2
31/08:30am 20.6 21.9 18.4 87 1.4 WNW 9 11 5 6 1018.3 1015.8 39.2
31/08:00am 20.1 21.7 18.2 89 1.2 NNW 7 11 4 6 1018.1 1015.6 39.2
31/07:30am 19.9 21.1 18.2 90 1.1 NNW 9 9 5 5 1018.1 1015.6 39.2
31/07:00am 19.8 21.3 18.1 90 1.1 WNW 7 9 4 5 1017.8 1015.2 39.2
31/06:30am 19.7 20.8 18.0 90 1.1 NNW 9 13 5 7 1017.6 1015.0 39.2
31/06:00am 19.7 20.4 18.0 90 1.1 N 11 13 6 7 1017.5 1014.9 39.2
31/05:30am 19.7 20.4 18.0 90 1.1 NNW 11 13 6 7 1017.3 1014.7 39.2
31/05:00am 19.5 20.2 18.0 91 0.9 N 11 13 6 7 1017.0 1014.4 39.2
31/04:30am 19.4 20.2 18.1 92 0.8 N 11 15 6 8 1016.8 1014.2 39.2
31/04:00am 19.3 20.1 18.1 93 0.8 N 11 15 6 8 1016.7 1014.1 39.2
31/03:30am 19.4 19.8 18.2 93 0.8 N 13 19 7 10 1016.7 1014.1 39.2
31/03:00am 19.5 19.9 18.2 92 0.8 N 13 17 7 9 1016.7 1014.1 39.0
31/02:30am 19.5 20.2 18.0 91 0.9 N 11 15 6 8 1016.9 1014.3 39.0
31/02:00am 19.6 20.0 18.1 91 0.9 N 13 19 7 10 1016.8 1014.2 39.0
31/01:30am 19.6 18.8 17.9 90 1.1 N 19 26 10 14 1017.0 1014.4 39.0
31/01:00am 19.5 18.0 17.8 90 1.1 N 22 28 12 15 1017.2 1014.6 39.0
31/12:30am 19.0 18.5 17.7 92 0.8 N 17 20 9 11 1017.5 1014.9 39.0
31/12:00am 19.0 17.6 17.0 88 1.2 NNE 20 26 11 14 1017.6 1015.0 39.0
 
Date/Time
WST
Temp
°C
App
Temp
°C
Dew
Point
Rel
Hum
%
Delta-T
°C
Wind Press
QNH
hPa
Press
MSL
hPa
Rain
since 9 am
mm
Dir
 
Spd
km/h
Gust
km/h
Spd
kts
Gust
kts
30/11:30pm 19.4 17.9 17.7 90 1.1 N 22 30 12 16 1017.5 1014.9 39.0
30/11:00pm 19.5 18.2 18.2 92 0.8 N 22 30 12 16 1017.9 1015.3 39.0
30/10:30pm 19.4 19.6 18.6 95 0.5 NNE 15 20 8 11 1018.3 1015.8 39.0
30/10:00pm 19.2 20.1 18.4 95 0.5 NE 11 17 6 9 1018.8 1016.3 38.8
30/09:30pm 19.1 19.5 18.1 94 0.6 NE 13 15 7 8 1019.4 1016.8 38.4
30/09:00pm 19.0 19.7 18.0 94 0.6 NE 11 17 6 9 1019.6 1017.0 37.6
30/08:30pm 18.8 20.5 18.0 95 0.5 SW 6 9 3 5 1019.8 1017.2 36.8
30/08:00pm 18.9 21.6 17.7 93 0.7 CALM 0 4 0 2 1019.9 1017.3 33.4
30/07:30pm 18.9 21.4 18.1 95 0.5 NE 2 6 1 3 1019.9 1017.3 29.2
30/07:00pm 19.1 18.7 18.1 94 0.6 ENE 17 22 9 12 1019.4 1016.8 24.4
30/06:30pm 19.4 20.0 18.6 95 0.5 ENE 13 20 7 11 1018.8 1016.3 20.8
30/06:00pm 19.4 19.1 18.2 93 0.8 ENE 17 20 9 11 1018.5 1016.0 14.4
30/05:30pm 19.9 21.3 18.7 93 0.8 E 9 11 5 6 1018.7 1016.2 11.4
30/05:00pm 20.0 21.0 18.7 92 0.8 E 11 15 6 8 1018.5 1016.0 10.2
30/04:30pm 20.1 20.9 19.1 94 0.6 ESE 13 17 7 9 1018.5 1016.0 9.0
30/04:00pm 20.1 21.6 18.9 93 0.8 S 9 11 5 6 1018.4 1015.9 7.8
30/03:30pm 20.1 21.2 18.8 92 0.8 S 11 13 6 7 1018.4 1015.9 7.0
30/03:00pm 19.9 20.9 18.6 92 0.8 SSW 11 13 6 7 1018.6 1016.1 6.6
30/02:30pm 20.3 21.2 18.4 89 1.2 W 11 13 6 7 1018.9 1016.4 6.0
30/02:00pm 20.2 21.4 18.3 89 1.2 W 9 13 5 7 1019.2 1016.6 5.6
30/01:30pm 20.5 21.3 18.1 86 1.5 W 11 15 6 8 1019.7 1017.1 4.6
30/01:00pm 21.0 21.6 18.6 86 1.5 W 13 17 7 9 1019.8 1017.2 4.0
30/12:30pm 21.2 22.1 18.4 84 1.8 W 11 15 6 8 1019.9 1017.3 2.8
30/12:00pm 21.5 22.9 18.7 84 1.8 WNW 9 11 5 6 1020.1 1017.5 1.6
30/11:30am 21.8 22.8 18.6 82 2.0 WNW 11 15 6 8 1020.3 1017.8 0.8
30/11:00am 22.0 21.7 18.2 79 2.4 NW 17 20 9 11 1020.4 1017.9 0.4
30/10:30am 22.7 21.9 17.2 71 3.4 WNW 17 26 9 14 1020.4 1017.9 0.0
30/10:00am 23.3 21.4 16.8 67 4.0 WNW 22 32 12 17 1020.3 1017.8 0.0
30/09:30am 24.1 21.5 15.9 60 5.1 NW 24 32 13 17 1019.9 1017.3 0.0
30/09:00am 24.9 22.5 15.5 56 5.8 WNW 22 32 12 17 1019.3 1016.7 0.0
30/08:30am 25.6 23.6 15.6 54 6.2 NW 20 32 11 17 1019.3 1016.7 0.0
30/08:00am 25.0 23.9 15.3 55 5.9 N 15 22 8 12 1019.1 1016.5 0.0
30/07:30am 24.0 22.7 12.6 49 6.7 N 11 13 6 7 1018.7 1016.2 0.0
30/07:00am 23.7 20.1 11.7 47 6.9 N 22 30 12 16 1018.9 1016.4 0.0
30/06:30am 21.9 21.3 12.2 54 5.6 ENE 7 9 4 5 1017.6 1015.0 0.0
30/06:00am 21.9 20.8 11.9 53 5.7 ENE 9 11 5 6 1017.1 1014.5 0.0
30/05:30am 22.1 21.0 11.8 52 5.9 NE 9 11 5 6 1016.8 1014.2 0.0
30/05:00am 21.7 20.2 12.0 54 5.5 NE 11 13 6 7 1016.6 1014.0 0.0
30/04:30am 21.3 20.2 11.9 55 5.4 NE 9 11 5 6 1016.3 1013.8 0.0
30/04:00am 21.0 19.9 11.9 56 5.2 E 9 9 5 5 1016.3 1013.8 0.0
30/03:30am 21.5 20.8 12.1 55 5.4 E 7 9 4 5 1016.3 1013.8 0.0
30/03:00am 21.4 20.3 12.0 55 5.4 E 9 11 5 6 1016.4 1013.9 0.0
30/02:30am 21.8 21.0 11.8 53 5.7 ENE 7 9 4 5 1016.7 1014.1 0.0
30/02:00am 22.1 20.9 11.5 51 6.0 ENE 9 11 5 6 1016.6 1014.0 0.0
30/01:30am 22.8 21.1 11.2 48 6.6 NE 11 13 6 7 1017.0 1014.4 0.0
30/01:00am 23.4 21.8 11.5 47 6.8 NE 11 15 6 8 1017.5 1014.9 0.0
30/12:30am 24.2 21.7 11.2 44 7.4 NE 15 20 8 11 1017.7 1015.1 0.0
30/12:00am 24.4 21.6 11.4 44 7.4 ENE 17 22 9 12 1017.7 1015.1 0.0
 
Date/Time
WST
Temp
°C
App
Temp
°C
Dew
Point
Rel
Hum
%
Delta-T
°C
Wind Press
QNH
hPa
Press
MSL
hPa
Rain
since 9 am
mm
Dir
 
Spd
km/h
Gust
km/h
Spd
kts
Gust
kts
29/11:30pm 24.1 23.0 11.8 46 7.1 ENE 9 13 5 7 1018.1 1015.6 0.0
29/11:00pm 24.0 22.9 12.0 47 6.9 E 9 11 5 6 1018.4 1015.9 0.0
29/10:30pm 24.6 23.5 11.9 45 7.4 E 9 11 5 6 1018.6 1016.1 0.0
29/10:00pm 25.1 22.8 11.6 42 7.8 E 15 20 8 11 1018.6 1016.1 0.0
29/09:30pm 25.2 23.3 11.7 43 7.8 ENE 13 15 7 8 1018.8 1016.3 0.0
29/09:00pm 25.3 23.4 11.8 43 7.8 E 13 15 7 8 1018.7 1016.2 0.0
29/08:30pm 25.5 24.7 11.7 42 8.0 E 7 7 4 4 1018.7 1016.2 0.0
29/08:00pm 26.2 25.0 11.5 40 8.5 ENE 9 11 5 6 1018.5 1016.0 0.0
29/07:30pm 27.0 25.5 10.7 36 9.4 ENE 9 9 5 5 1018.2 1015.7 0.0
29/07:00pm 27.9 26.3 10.1 33 10.1 ENE 9 9 5 5 1017.8 1015.2 0.0

Other Formats:

Comma delimited format used in spreadsheet applications
http://www.bom.gov.au/fwo/IDW60801/IDW60801.94429.axf

JavaScript Object Notation format (JSON) in row-major order
http://www.bom.gov.au/fwo/IDW60801/IDW60801.94429.json